Time;durP1;ratioP1;P1;durP2;ratioP2;P2;SDS_P1;SDS_P2;PMS_P1;PMS_P2;Temp;Humidity;BMP_temperature;BMP_pressure;BME280_temperature;BME280_humidity;BME280_pressure;Samples;Min_cycle;Max_cycle;Signal;HPM_P1;HPM_P2
2021/12/16 00:09:09;;;;;;;21.60;8.63;;;;;;;20.47;38.95;103459.03;5065057;28;20051;-70
2021/12/16 00:33:17;;;;;;;18.23;7.37;;;;;;;21.56;37.47;103463.09;5065365;28;20565;-73
2021/12/16 00:35:46;;;;;;;17.33;7.70;;;;;;;21.53;37.15;103461.34;5045203;28;20024;-73
2021/12/16 00:38:12;;;;;;;20.33;7.17;;;;;;;21.40;37.50;103463.25;5068143;28;20109;-73
2021/12/16 00:40:40;;;;;;;12.17;6.97;;;;;;;21.01;37.82;103462.88;5040920;28;20112;-73
2021/12/16 00:43:26;;;;;;;18.97;7.50;;;;;;;21.39;37.30;103461.50;5044247;28;20055;-73
2021/12/16 00:46:12;;;;;;;17.17;6.97;;;;;;;20.76;38.59;103449.91;5048606;28;20025;-73
2021/12/16 00:56:32;;;;;;;17.67;7.50;;;;;;;21.02;37.64;103452.22;5066882;28;20507;-73
2021/12/16 00:58:59;;;;;;;15.53;7.00;;;;;;;21.13;38.10;103470.72;5042610;28;20067;-73
2021/12/16 01:06:59;;;;;;;15.57;7.93;;;;;;;21.52;37.30;103473.75;5059064;28;20089;-73
2021/12/16 01:34:58;;;;;;;17.27;7.27;;;;;;;20.81;38.72;103501.22;5048447;28;20044;-73
2021/12/16 01:37:57;;;;;;;25.65;6.97;;;;;;;20.95;37.88;103497.50;5023533;28;20504;-73
2021/12/16 01:49:04;;;;;;;25.00;8.47;;;;;;;21.18;37.41;103510.53;5044267;28;20107;-73
2021/12/16 01:51:24;;;;;;;22.73;7.70;;;;;;;20.78;38.37;103517.19;5048107;28;20091;-73
2021/12/16 01:57:28;;;;;;;26.77;8.13;;;;;;;20.99;37.22;103515.19;5048942;28;20055;-73
2021/12/16 02:00:02;;;;;;;20.17;7.72;;;;;;;20.75;37.77;103514.56;5046464;28;20041;-73
2021/12/16 02:10:33;;;;;;;19.20;7.73;;;;;;;20.41;37.81;103536.09;5048547;28;20122;-73
2021/12/16 02:29:54;;;;;;;23.93;7.90;;;;;;;19.87;38.49;103546.28;5059001;28;20448;-74
2021/12/16 02:32:36;;;;;;;22.03;8.10;;;;;;;19.95;38.73;103547.09;5059029;28;20120;-73
2021/12/16 02:37:32;;;;;;;24.47;9.30;;;;;;;20.51;38.20;103551.09;5065506;28;20059;-73
2021/12/16 02:39:58;;;;;;;22.90;9.43;;;;;;;20.58;38.21;103551.00;5037041;28;20492;-73
2021/12/16 02:42:36;;;;;;;29.23;9.87;;;;;;;20.83;37.70;103552.56;5038977;28;20078;-73
2021/12/16 02:50:13;;;;;;;26.70;9.83;;;;;;;20.90;37.78;103547.22;5067508;28;20046;-71
2021/12/16 02:52:39;;;;;;;22.53;8.13;;;;;;;20.71;37.95;103542.06;5049477;28;20024;-71
2021/12/16 02:55:07;;;;;;;23.17;8.17;;;;;;;20.79;37.72;103548.19;5042498;28;20035;-71
2021/12/16 02:57:39;;;;;;;23.63;8.17;;;;;;;20.86;37.56;103551.66;5050916;28;20040;-71
2021/12/16 03:00:12;;;;;;;26.73;9.77;;;;;;;20.65;38.22;103552.75;5045114;28;20119;-71
2021/12/16 03:02:37;;;;;;;23.88;8.32;;;;;;;21.13;37.12;103550.50;5047275;28;20036;-71
2021/12/16 03:05:03;;;;;;;17.33;7.40;;;;;;;21.24;36.97;103537.06;5047987;28;20025;-71
2021/12/16 03:07:29;;;;;;;21.33;8.07;;;;;;;21.08;37.24;103536.34;5070442;28;20028;-71
2021/12/16 03:15:19;;;;;;;23.37;7.33;;;;;;;20.57;37.56;103538.66;5068923;28;20036;-71
2021/12/16 03:20:31;;;;;;;22.80;8.53;;;;;;;20.05;38.22;103546.13;5064532;28;20028;-71
2021/12/16 03:23:20;;;;;;;21.37;8.73;;;;;;;20.12;38.10;103547.84;5070340;28;20044;-71
2021/12/16 03:33:52;;;;;;;22.30;7.83;;;;;;;19.80;38.68;103546.28;5068307;28;20094;-71
2021/12/16 03:38:58;;;;;;;17.00;6.97;;;;;;;20.36;38.06;103551.22;5062064;28;20468;-71
2021/12/16 03:41:25;;;;;;;16.53;7.37;;;;;;;20.24;38.43;103561.94;5045248;28;20044;-71
2021/12/16 03:43:51;;;;;;;20.50;8.17;;;;;;;20.21;38.59;103561.94;5052003;28;20574;-71
2021/12/16 03:46:27;;;;;;;20.40;7.13;;;;;;;20.28;38.52;103551.28;5048658;28;20052;-71
2021/12/16 03:49:07;;;;;;;23.03;7.90;;;;;;;20.40;38.21;103550.31;5041175;28;20480;-71
2021/12/16 03:51:43;;;;;;;14.43;6.83;;;;;;;20.77;37.59;103550.00;5067914;28;20051;-71
2021/12/16 03:54:16;;;;;;;19.80;7.87;;;;;;;20.96;37.13;103552.44;5044773;28;20387;-71
2021/12/16 03:56:42;;;;;;;;;;;;;;;20.89;37.39;103545.44;5051264;28;20033;-72
2021/12/16 03:59:10;;;;;;;20.17;6.67;;;;;;;20.90;37.34;103544.56;5048215;28;20537;-71
2021/12/16 04:01:36;;;;;;;18.97;7.00;;;;;;;20.46;38.06;103547.59;5067015;28;20040;-70
2021/12/16 04:04:02;;;;;;;17.17;7.77;;;;;;;20.78;37.89;103541.09;5069308;28;20028;-71
2021/12/16 04:06:30;;;;;;;19.07;7.30;;;;;;;20.87;37.07;103541.91;5052081;28;20376;-71
2021/12/16 04:08:57;;;;;;;16.07;7.53;;;;;;;20.75;37.68;103551.78;5046637;28;20047;-70
2021/12/16 04:11:38;;;;;;;25.00;7.67;;;;;;;20.54;38.10;103552.84;5049902;28;20274;-71
2021/12/16 04:14:04;;;;;;;14.47;6.57;;;;;;;20.54;37.75;103555.50;5048144;28;20060;-71
2021/12/16 04:16:39;;;;;;;17.27;6.67;;;;;;;20.58;37.70;103545.69;5049185;28;20052;-71
2021/12/16 04:19:09;;;;;;;16.90;7.07;;;;;;;20.26;38.18;103545.09;5069762;28;20047;-70
2021/12/16 04:21:38;;;;;;;14.70;6.30;;;;;;;20.38;38.10;103565.38;5066578;28;20056;-71
2021/12/16 04:24:04;;;;;;;18.40;7.17;;;;;;;20.62;37.54;103558.06;5049079;28;20192;-71
2021/12/16 04:26:31;;;;;;;21.17;8.13;;;;;;;20.24;38.65;103567.25;5068818;28;20502;-71
2021/12/16 04:28:57;;;;;;;15.27;6.77;;;;;;;20.01;39.06;103565.63;5048208;28;20111;-71
2021/12/16 04:31:23;;;;;;;20.13;7.03;;;;;;;20.09;38.57;103563.81;5049409;28;20036;-71
2021/12/16 04:33:50;;;;;;;13.97;7.10;;;;;;;20.15;38.43;103569.09;5050380;28;20033;-71
2021/12/16 04:36:16;;;;;;;16.67;6.73;;;;;;;19.94;38.29;103563.91;5047215;28;20024;-71
2021/12/16 04:38:43;;;;;;;21.03;7.57;;;;;;;20.24;37.62;103556.63;5063583;28;20089;-71
2021/12/16 04:41:11;;;;;;;16.03;6.57;;;;;;;20.01;38.23;103549.72;5049186;28;20488;-71
2021/12/16 04:43:46;;;;;;;15.53;6.87;;;;;;;19.80;39.26;103562.22;5050579;28;20465;-71
2021/12/16 04:46:17;;;;;;;12.00;6.10;;;;;;;19.98;38.43;103557.69;5050178;28;20483;-71
2021/12/16 04:48:45;;;;;;;24.73;7.27;;;;;;;19.95;38.45;103550.63;5049769;28;20020;-71
2021/12/16 04:51:12;;;;;;;16.03;6.80;;;;;;;19.80;38.47;103550.72;5048843;28;20110;-71
2021/12/16 04:53:40;;;;;;;16.57;7.27;;;;;;;19.85;38.49;103558.66;5066117;28;20115;-71
2021/12/16 04:56:08;;;;;;;16.40;6.97;;;;;;;19.78;38.20;103553.38;5049063;28;20555;-71
2021/12/16 04:58:34;;;;;;;21.70;7.10;;;;;;;19.78;38.89;103553.38;5050348;28;20043;-71
2021/12/16 05:01:01;;;;;;;18.43;6.67;;;;;;;19.64;38.56;103561.38;5049785;28;20119;-71
2021/12/16 05:03:27;;;;;;;16.63;7.47;;;;;;;19.65;38.92;103564.94;5067667;28;20064;-71
2021/12/16 05:05:53;;;;;;;22.07;9.63;;;;;;;19.67;38.75;103555.19;5067037;28;20052;-71
2021/12/16 05:08:19;;;;;;;14.30;6.73;;;;;;;19.45;38.90;103557.06;5050377;28;20116;-70
2021/12/16 05:10:46;;;;;;;17.07;7.40;;;;;;;19.36;38.98;103573.91;5065630;28;20032;-71
2021/12/16 05:13:11;;;;;;;16.80;7.10;;;;;;;19.48;38.69;103570.28;5050532;28;20033;-70
2021/12/16 05:15:40;;;;;;;16.53;6.63;;;;;;;19.10;39.22;103573.97;5048455;28;20490;-71
2021/12/16 05:18:09;;;;;;;14.93;6.67;;;;;;;19.24;39.25;103577.47;5049229;28;20036;-71
2021/12/16 05:20:42;;;;;;;21.23;7.43;;;;;;;19.15;39.21;103586.34;5040778;28;20496;-70
2021/12/16 05:28:32;;;;;;;17.70;6.93;;;;;;;19.32;39.40;103578.31;5065966;28;20495;-71
2021/12/16 05:30:58;;;;;;;21.30;7.30;;;;;;;19.44;38.95;103588.00;5064707;28;20119;-71
2021/12/16 05:33:24;;;;;;;17.67;6.60;;;;;;;19.30;38.77;103592.47;5043642;28;20024;-71
2021/12/16 05:35:52;;;;;;;19.27;7.30;;;;;;;19.52;38.00;103598.56;5046007;28;20533;-70
2021/12/16 05:38:17;;;;;;;12.80;6.43;;;;;;;19.42;38.73;103595.06;5047563;28;20078;-71
2021/12/16 05:40:43;;;;;;;17.77;6.83;;;;;;;19.26;38.81;103596.00;5065299;28;20048;-71
2021/12/16 05:43:11;;;;;;;19.00;7.17;;;;;;;19.55;38.88;103587.97;5042777;28;20025;-71
2021/12/16 05:45:37;;;;;;;18.77;7.43;;;;;;;19.59;38.15;103595.03;5059152;28;20019;-71
2021/12/16 05:48:05;;;;;;;13.60;6.30;;;;;;;19.53;38.66;103599.47;5041682;28;20392;-71
2021/12/16 05:50:33;;;;;;;17.30;7.27;;;;;;;19.26;38.96;103601.31;5058788;28;20020;-71
2021/12/16 05:52:59;;;;;;;20.20;7.63;;;;;;;19.49;38.24;103609.19;5043104;28;20480;-71
2021/12/16 05:55:28;;;;;;;19.13;6.60;;;;;;;19.17;39.09;103618.13;5062536;28;20082;-70
2021/12/16 05:57:55;;;;;;;14.73;6.43;;;;;;;19.12;39.00;103618.16;5041856;28;20028;-71
2021/12/16 06:00:26;;;;;;;18.67;7.10;;;;;;;19.19;38.97;103610.19;5045656;28;20040;-71
2021/12/16 06:02:51;;;;;;;11.33;5.90;;;;;;;19.30;38.59;103613.69;5058362;28;20112;-71
2021/12/16 06:05:18;;;;;;;14.20;6.73;;;;;;;19.71;37.26;103611.78;5045343;28;20564;-71
2021/12/16 06:07:43;;;;;;;13.67;5.90;;;;;;;19.02;38.80;103608.44;5037373;28;20032;-71
2021/12/16 06:10:24;;;;;;;15.60;6.90;;;;;;;19.27;38.45;103608.38;5040198;28;20080;-71
2021/12/16 06:12:49;;;;;;;14.20;7.03;;;;;;;19.37;38.16;103611.91;5037598;28;20052;-71
2021/12/16 06:15:23;;;;;;;16.90;7.27;;;;;;;19.08;38.72;103604.91;5042892;28;20496;-71
2021/12/16 06:28:32;;;;;;;14.83;5.77;;;;;;;18.99;38.52;103634.97;5058974;28;20055;-71
2021/12/16 06:30:58;;;;;;;16.87;6.87;;;;;;;18.77;38.74;103624.34;5038579;28;20111;-71
2021/12/16 06:33:24;;;;;;;14.90;6.47;;;;;;;18.61;38.90;103628.72;5037085;28;20133;-71
2021/12/16 06:35:52;;;;;;;15.57;6.57;;;;;;;18.85;38.15;103636.69;5036367;28;20032;-71
2021/12/16 06:38:19;;;;;;;10.20;5.67;;;;;;;18.69;39.24;103638.47;5038183;28;20036;-71
2021/12/16 06:40:45;;;;;;;11.30;5.30;;;;;;;18.66;38.56;103642.00;5038786;28;20113;-71
2021/12/16 06:43:12;;;;;;;12.70;6.53;;;;;;;19.18;37.00;103645.53;5036720;28;20037;-71
2021/12/16 06:45:41;;;;;;;12.13;6.00;;;;;;;18.54;38.85;103648.16;5064470;28;20020;-70
2021/12/16 06:48:12;;;;;;;11.10;5.93;;;;;;;18.25;39.36;103645.47;5063922;28;20035;-70
2021/12/16 06:50:49;;;;;;;14.10;6.07;;;;;;;18.50;38.35;103650.81;5043703;28;20103;-71
2021/12/16 06:53:22;;;;;;;12.97;5.13;;;;;;;18.63;38.55;103652.59;5048442;28;20034;-70
2021/12/16 06:56:00;;;;;;;9.67;5.33;;;;;;;18.80;38.03;103660.53;5063812;28;20465;-71
2021/12/16 07:01:03;;;;;;;15.73;6.00;;;;;;;18.25;39.13;103656.06;5060075;28;20067;-71
2021/12/16 07:03:39;;;;;;;12.60;5.93;;;;;;;18.24;39.44;103656.94;5040492;28;20111;-71
2021/12/16 07:06:04;;;;;;;9.80;4.87;;;;;;;18.09;39.29;103661.31;5043093;28;20396;-71
2021/12/16 07:08:30;;;;;;;10.67;4.90;;;;;;;18.36;38.65;103664.03;5059931;28;20029;-71
2021/12/16 07:10:57;;;;;;;13.70;5.23;;;;;;;18.26;38.78;103673.72;5039458;28;20021;-71
2021/12/16 07:13:40;;;;;;;12.13;5.57;;;;;;;18.63;37.98;103679.09;5049121;28;20353;-71
2021/12/16 07:16:06;;;;;;;8.10;4.73;;;;;;;18.68;37.80;103682.59;5045039;28;20512;-71
2021/12/16 07:18:31;;;;;;;10.13;5.57;;;;;;;18.26;38.25;103679.03;5041148;28;20028;-71
2021/12/16 07:20:57;;;;;;;8.77;5.20;;;;;;;18.01;39.04;103686.88;5055630;28;20469;-71
2021/12/16 07:23:23;;;;;;;14.40;4.83;;;;;;;18.23;38.69;103693.13;5043814;28;20052;-71
2021/12/16 07:25:48;;;;;;;14.33;5.97;;;;;;;17.91;39.62;103698.25;5035993;28;20158;-71
2021/12/16 07:28:13;;;;;;;14.40;6.07;;;;;;;18.12;39.34;103692.19;5038726;28;20091;-71
2021/12/16 07:30:43;;;;;;;10.73;5.63;;;;;;;18.20;38.64;103708.09;5039645;28;20036;-71
2021/12/16 07:33:12;;;;;;;10.97;5.53;;;;;;;18.37;38.15;103706.41;5057366;28;20044;-71
2021/12/16 07:35:39;;;;;;;12.07;5.73;;;;;;;18.13;38.89;103704.56;5063198;28;20119;-70
2021/12/16 07:38:05;;;;;;;15.17;7.10;;;;;;;18.14;39.15;103707.19;5031722;28;20063;-71
2021/12/16 07:40:31;;;;;;;13.83;6.20;;;;;;;18.35;38.21;103710.78;5039970;28;20171;-71
2021/12/16 07:45:30;;;;;;;10.45;5.43;;;;;;;17.86;38.94;103723.78;5070268;28;20029;-71
2021/12/16 07:47:56;;;;;;;14.80;6.10;;;;;;;17.84;39.49;103734.38;5040836;28;20044;-71
2021/12/16 07:50:22;;;;;;;11.07;5.73;;;;;;;18.18;38.40;103739.00;5052823;28;20539;-70
2021/12/16 07:52:48;;;;;;;13.83;6.20;;;;;;;17.84;38.71;103744.97;5050813;28;20020;-70
2021/12/16 07:55:14;;;;;;;14.83;6.40;;;;;;;17.63;39.92;103743.09;5060192;28;20035;-71
2021/12/16 07:57:41;;;;;;;11.90;5.80;;;;;;;17.64;39.96;103745.72;5052734;28;20233;-71
2021/12/16 08:00:13;;;;;;;13.60;5.60;;;;;;;18.12;38.60;103751.31;5066551;28;20125;-71
2021/12/16 08:02:39;;;;;;;17.80;6.13;;;;;;;17.93;39.08;103746.81;5068777;28;20048;-70
2021/12/16 08:05:07;;;;;;;17.37;6.27;;;;;;;17.67;39.71;103749.25;5044093;28;20036;-71
2021/12/16 08:07:33;;;;;;;15.83;6.37;;;;;;;17.68;39.24;103749.28;5049053;28;20155;-71
2021/12/16 08:09:59;;;;;;;18.70;6.70;;;;;;;17.92;38.67;103758.28;5059328;28;20112;-73
2021/12/16 08:12:25;;;;;;;14.53;5.87;;;;;;;17.96;38.44;103760.06;5059810;28;20105;-71
2021/12/16 08:14:51;;;;;;;14.00;6.23;;;;;;;17.69;39.28;103756.34;5066337;28;20029;-71
2021/12/16 08:17:17;;;;;;;15.93;7.23;;;;;;;17.86;38.76;103752.91;5042488;28;20036;-70
2021/12/16 08:19:45;;;;;;;18.10;6.23;;;;;;;18.12;38.21;103767.19;5049873;28;20399;-71
2021/12/16 08:22:11;;;;;;;15.23;6.77;;;;;;;18.00;38.34;103772.44;5042438;28;20046;-70
2021/12/16 08:24:37;;;;;;;14.57;6.63;;;;;;;17.85;39.42;103762.63;5038983;28;20037;-71
2021/12/16 08:27:03;;;;;;;18.80;7.13;;;;;;;17.94;38.32;103762.69;5041586;28;20028;-70
2021/12/16 08:29:28;;;;;;;13.30;6.70;;;;;;;17.96;38.82;103770.66;5043739;28;20032;-71
2021/12/16 08:31:56;;;;;;;14.13;7.00;;;;;;;18.11;37.93;103778.66;5045035;28;20081;-71
2021/12/16 08:34:21;;;;;;;11.83;5.70;;;;;;;17.97;38.50;103783.00;5040099;28;20036;-71
2021/12/16 08:36:50;;;;;;;16.03;6.60;;;;;;;17.59;39.90;103786.25;5066770;28;20042;-71
2021/12/16 08:39:16;;;;;;;13.67;5.60;;;;;;;17.80;39.10;103785.50;5053657;28;20485;-71
2021/12/16 08:41:49;;;;;;;18.00;7.07;;;;;;;18.21;38.29;103786.66;5067395;28;20033;-71
2021/12/16 08:44:16;;;;;;;13.77;6.83;;;;;;;17.86;39.18;103782.91;5073509;28;20082;-70
2021/12/16 08:46:46;;;;;;;15.03;5.93;;;;;;;17.91;38.97;103785.56;5050479;28;20103;-71
2021/12/16 08:49:12;;;;;;;11.97;6.00;;;;;;;17.97;38.75;103798.88;5038079;28;20504;-71
2021/12/16 08:51:41;;;;;;;13.40;5.97;;;;;;;18.12;38.20;103798.06;5036853;28;20028;-71
2021/12/16 08:54:07;;;;;;;17.37;6.10;;;;;;;18.20;37.71;103806.06;5051626;28;20079;-71
2021/12/16 08:56:33;;;;;;;12.03;6.40;;;;;;;18.08;38.47;103807.78;5048496;28;20040;-71
2021/12/16 08:59:00;;;;;;;15.30;6.53;;;;;;;18.34;37.94;103809.66;5042401;28;20021;-71
2021/12/16 09:01:28;;;;;;;16.60;6.63;;;;;;;18.39;37.91;103812.31;5042613;28;20037;-71
2021/12/16 09:03:57;;;;;;;13.70;6.63;;;;;;;18.28;38.69;103809.63;5059339;28;20021;-71
2021/12/16 09:06:24;;;;;;;16.47;7.90;;;;;;;18.36;38.37;103821.13;5033663;28;20021;-71
2021/12/16 09:08:50;;;;;;;15.93;7.70;;;;;;;18.40;38.25;103814.97;5034572;28;20515;-70
2021/12/16 09:11:21;;;;;;;17.50;7.03;;;;;;;18.35;39.20;103811.41;5053220;28;20048;-70
2021/12/16 09:13:47;;;;;;;17.63;7.97;;;;;;;18.41;38.43;103815.84;5053316;28;20024;-70
2021/12/16 09:16:16;;;;;;;14.00;7.60;;;;;;;18.51;38.59;103819.44;5070973;28;20094;-70
2021/12/16 09:18:42;;;;;;;14.93;7.27;;;;;;;18.37;39.30;103820.25;5034544;28;20041;-70
2021/12/16 09:21:10;;;;;;;15.13;8.00;;;;;;;18.53;39.25;103825.63;5047482;28;20025;-70
2021/12/16 09:23:36;;;;;;;17.90;8.50;;;;;;;18.69;38.85;103826.56;5038310;28;20033;-71
2021/12/16 09:26:03;;;;;;;19.17;9.20;;;;;;;18.71;39.32;103816.84;5047094;28;20483;-70
2021/12/16 09:28:28;;;;;;;15.87;7.77;;;;;;;18.66;38.64;103832.75;5035516;28;20056;-70
2021/12/16 09:30:54;;;;;;;25.30;8.70;;;;;;;18.76;38.30;103823.91;5030363;28;20074;-71
2021/12/16 09:33:22;;;;;;;19.27;8.53;;;;;;;18.71;38.88;103831.00;5050461;28;20037;-71
2021/12/16 09:35:50;;;;;;;21.67;9.20;;;;;;;18.86;38.99;103829.25;5050921;28;20052;-70
2021/12/16 09:38:17;;;;;;;17.20;8.73;;;;;;;18.74;39.64;103835.38;5032948;28;20127;-70
2021/12/16 09:40:51;;;;;;;17.43;9.57;;;;;;;18.66;40.76;103827.44;5032602;28;20024;-70
2021/12/16 09:43:25;;;;;;;26.17;10.43;;;;;;;18.91;40.75;103827.53;5050352;28;20017;-71
2021/12/16 09:45:54;;;;;;;21.63;10.87;;;;;;;19.38;39.30;103828.47;5032268;28;20138;-70
2021/12/16 09:48:20;;;;;;;25.10;11.87;;;;;;;19.15;41.04;103831.97;5033066;28;20036;-71
2021/12/16 09:50:46;;;;;;;28.77;11.57;;;;;;;19.33;40.48;103832.00;5050987;28;20025;-71
2021/12/16 09:53:12;;;;;;;26.10;13.27;;;;;;;19.62;39.47;103830.25;5028093;28;20060;-70
2021/12/16 09:55:39;;;;;;;26.53;13.10;;;;;;;19.56;39.37;103843.50;5035567;28;20021;-70
2021/12/16 09:58:05;;;;;;;25.07;13.10;;;;;;;19.63;39.95;103840.88;5050335;28;20029;-70
2021/12/16 10:00:32;;;;;;;27.53;12.90;;;;;;;19.07;41.74;103845.25;5050235;28;20041;-70
2021/12/16 10:02:59;;;;;;;32.77;14.07;;;;;;;19.64;40.54;103839.97;5030203;28;20029;-71
2021/12/16 10:05:26;;;;;;;22.40;11.07;;;;;;;19.92;39.45;103839.97;5021501;28;20164;-71
2021/12/16 10:07:51;;;;;;;21.90;11.67;;;;;;;19.96;39.63;103843.50;5016689;28;20052;-70
2021/12/16 10:10:23;;;;;;;23.10;12.03;;;;;;;20.08;39.80;103847.91;5033237;28;20487;-70
2021/12/16 10:12:51;;;;;;;21.42;12.05;;;;;;;20.07;39.75;103847.03;5012518;28;20036;-70
2021/12/16 10:18:13;;;;;;;27.17;12.70;;;;;;;20.63;39.33;103844.16;5030062;28;20041;-71
2021/12/16 10:20:53;;;;;;;24.93;12.93;;;;;;;20.70;39.66;103853.03;5012822;28;20026;-70
2021/12/16 10:23:23;;;;;;;35.33;12.57;;;;;;;20.89;38.71;103848.50;5026851;28;20049;-70
2021/12/16 10:25:56;;;;;;;33.33;14.43;;;;;;;21.22;39.27;103857.13;5029164;28;20021;-71
2021/12/16 10:28:26;;;;;;;21.30;11.83;;;;;;;22.34;37.81;103855.25;5029626;28;20040;-70
2021/12/16 10:31:04;;;;;;;20.20;11.17;;;;;;;22.64;37.02;103859.31;5030182;28;20034;-70
2021/12/16 10:33:41;;;;;;;21.57;12.13;;;;;;;22.74;38.21;103845.81;5029820;28;20045;-70
2021/12/16 10:36:25;;;;;;;18.50;9.83;;;;;;;22.83;36.42;103846.59;5027947;28;20417;-70
2021/12/16 10:38:53;;;;;;;18.93;10.00;;;;;;;23.23;37.73;103846.91;5028860;28;20397;-70
2021/12/16 10:41:26;;;;;;;15.00;8.63;;;;;;;23.55;37.47;103844.59;5030466;28;20025;-71
2021/12/16 10:44:04;;;;;;;;;;;;;;;23.78;36.41;103851.31;5028625;28;20025;-71
2021/12/16 10:46:33;;;;;;;19.30;8.80;;;;;;;22.03;39.18;103853.75;5029346;28;19924;-70
2021/12/16 10:49:12;;;;;;;17.63;9.00;;;;;;;22.47;38.36;103847.97;5028562;28;20128;-70
2021/12/16 10:51:41;;;;;;;18.00;8.10;;;;;;;22.69;38.79;103851.22;5029263;28;20032;-70
2021/12/16 10:54:13;;;;;;;15.77;7.97;;;;;;;21.99;39.85;103856.47;5028735;28;20030;-70
2021/12/16 10:57:10;;;;;;;16.05;8.32;;;;;;;22.33;39.78;103851.66;5028528;28;20029;-70
2021/12/16 10:59:44;;;;;;;17.33;8.27;;;;;;;21.90;40.49;103862.81;5018246;28;20128;-71
2021/12/16 11:02:28;;;;;;;17.53;8.10;;;;;;;21.85;40.09;103868.16;5028334;28;20021;-70
2021/12/16 11:05:11;;;;;;;17.80;9.53;;;;;;;21.98;40.40;103862.69;5029334;28;20112;-70
2021/12/16 11:07:42;;;;;;;;;;;;;;;21.83;40.80;103867.31;5029461;28;20018;-71
2021/12/16 11:10:28;;;;;;;22.23;8.73;;;;;;;21.37;41.52;103867.66;5027993;28;19936;-71
2021/12/16 11:13:02;;;;;;;23.83;9.63;;;;;;;21.43;40.62;103867.63;5029720;28;20018;-70
2021/12/16 11:15:49;;;;;;;15.03;8.87;;;;;;;21.90;40.75;103861.91;5029883;28;20025;-70
2021/12/16 11:18:22;;;;;;;21.70;10.00;;;;;;;21.62;40.98;103862.16;5030135;28;20036;-70
2021/12/16 11:21:05;;;;;;;21.58;9.63;;;;;;;22.18;39.40;103867.81;5032424;28;20033;-71
2021/12/16 11:23:34;;;;;;;26.27;10.68;;;;;;;22.17;39.55;103861.63;5053352;28;20064;-70
2021/12/16 11:26:01;;;;;;;21.03;9.93;;;;;;;22.65;38.95;103861.03;5034674;28;20028;-70
2021/12/16 11:28:28;;;;;;;25.87;11.67;;;;;;;21.91;40.49;103863.66;5035808;28;20032;-70
2021/12/16 11:30:59;;;;;;;21.00;9.53;;;;;;;22.14;40.10;103850.97;5035387;28;20067;-70
2021/12/16 11:33:50;;;;;;;21.17;10.53;;;;;;;22.28;39.53;103863.28;5053138;28;20137;-70
2021/12/16 11:36:21;;;;;;;23.07;10.77;;;;;;;23.15;38.39;103852.38;5035571;28;20037;-70
2021/12/16 11:38:47;;;;;;;21.47;10.47;;;;;;;22.66;38.41;103853.94;5034857;28;20104;-70
2021/12/16 11:41:18;;;;;;;21.97;10.57;;;;;;;21.33;41.08;103839.31;5035392;28;20036;-70
2021/12/16 11:43:49;;;;;;;22.40;10.37;;;;;;;21.93;40.32;103848.56;5035546;28;20025;-70
2021/12/16 11:46:21;;;;;;;21.73;10.23;;;;;;;21.91;40.79;103851.22;5034696;28;20029;-70
2021/12/16 11:48:48;;;;;;;24.27;10.27;;;;;;;22.94;38.89;103842.88;5035509;28;20040;-70
2021/12/16 11:51:30;;;;;;;25.10;10.93;;;;;;;22.91;38.79;103849.13;5035221;28;20033;-70
2021/12/16 11:54:03;;;;;;;23.43;12.00;;;;;;;22.40;39.33;103852.50;5034079;28;20017;-70
2021/12/16 11:56:47;;;;;;;23.40;11.17;;;;;;;21.81;40.58;103847.78;5035269;28;20034;-70
2021/12/16 11:59:28;;;;;;;24.83;10.10;;;;;;;21.39;41.58;103841.03;5035065;28;20433;-70
2021/12/16 12:01:55;;;;;;;22.67;10.67;;;;;;;23.00;38.74;103833.00;5035061;28;20029;-71
2021/12/16 12:04:40;;;;;;;22.90;10.03;;;;;;;23.14;38.68;103835.50;5052984;28;20551;-70
2021/12/16 12:07:15;;;;;;;26.23;9.80;;;;;;;22.52;39.75;103847.00;5033346;28;20037;-70
2021/12/16 12:09:47;;;;;;;17.67;10.20;;;;;;;23.07;39.13;103839.13;5035024;28;20039;-71
2021/12/16 12:12:14;;;;;;;18.80;9.18;;;;;;;21.32;41.70;103850.84;5035212;28;20033;-70
2021/12/16 12:14:43;;;;;;;18.83;9.30;;;;;;;22.12;40.45;103842.16;5052403;28;20103;-70
2021/12/16 12:17:17;;;;;;;19.60;9.87;;;;;;;22.75;38.96;103840.50;5034467;28;20074;-70
2021/12/16 12:19:47;;;;;;;22.30;10.40;;;;;;;22.46;39.58;103841.78;5034651;28;20120;-71
2021/12/16 12:22:14;;;;;;;22.30;10.53;;;;;;;21.02;42.32;103836.91;5030734;28;20080;-70
2021/12/16 12:24:46;;;;;;;22.73;9.87;;;;;;;23.19;38.46;103836.31;5031385;28;20021;-70
2021/12/16 12:27:18;;;;;;;21.50;9.90;;;;;;;22.25;40.64;103836.66;5032572;28;20029;-70
2021/12/16 12:29:51;;;;;;;21.55;8.90;;;;;;;21.90;40.90;103840.59;5030677;28;20056;-70
2021/12/16 12:32:19;;;;;;;17.75;9.05;;;;;;;22.63;39.38;103832.69;5031428;28;20021;-70
2021/12/16 12:34:53;;;;;;;16.98;7.32;;;;;;;22.55;39.31;103839.88;5031893;28;20037;-70
2021/12/16 12:37:21;;;;;;;14.77;6.93;;;;;;;22.57;39.52;103838.06;5030943;28;20504;-70
2021/12/16 12:39:51;;;;;;;16.67;6.53;;;;;;;22.67;38.30;103829.06;5031057;28;20021;-70
2021/12/16 12:42:17;;;;;;;15.88;6.00;;;;;;;24.02;36.32;103830.41;5030339;28;20033;-71
2021/12/16 12:44:44;;;;;;;15.85;6.65;;;;;;;23.93;36.87;103819.91;5031001;28;20033;-70
2021/12/16 12:47:17;;;;;;;12.48;5.85;;;;;;;24.89;35.59;103825.00;5031828;28;20470;-70
2021/12/16 12:49:43;;;;;;;14.32;5.50;;;;;;;24.74;35.68;103841.38;5030224;28;20033;-71
2021/12/16 12:52:13;;;;;;;8.13;4.32;;;;;;;23.40;37.04;103831.50;5031909;28;20029;-71
2021/12/16 12:54:42;;;;;;;9.77;4.85;;;;;;;24.45;35.50;103837.53;5031204;28;20034;-71
2021/12/16 12:57:20;;;;;;;13.32;5.10;;;;;;;25.06;34.36;103839.78;5029591;28;20116;-70
2021/12/16 12:59:45;;;;;;;15.05;4.60;;;;;;;23.28;36.17;103837.06;5030909;28;20079;-70
2021/12/16 13:02:19;;;;;;;10.80;4.10;;;;;;;23.17;37.23;103840.75;5031829;28;20488;-71
2021/12/16 13:05:00;;;;;;;11.15;4.10;;;;;;;23.48;36.15;103834.94;5029894;28;20033;-70
2021/12/16 13:07:37;;;;;;;11.50;3.70;;;;;;;24.68;34.34;103833.50;5030500;28;20075;-71
2021/12/16 13:10:18;;;;;;;8.27;3.75;;;;;;;24.93;33.88;103830.28;5029777;28;20336;-70
2021/12/16 13:12:55;;;;;;;15.63;3.97;;;;;;;24.20;34.98;103835.38;5030516;28;20013;-70
2021/12/16 13:16:17;;;;;;;9.77;3.75;;;;;;;24.18;35.24;103833.63;5031578;28;20044;-70
2021/12/16 13:26:40;;;;;;;15.77;4.45;;;;;;;21.93;38.72;103829.94;5044361;28;20115;-70
2021/12/16 13:29:10;;;;;;;9.97;4.47;;;;;;;20.77;41.57;103839.69;5032974;28;20032;-71
2021/12/16 13:32:09;;;;;;;10.73;4.60;;;;;;;21.92;39.18;103833.50;5051059;28;20076;-70
2021/12/16 13:34:50;;;;;;;14.63;4.53;;;;;;;23.16;37.09;103827.47;5051302;28;20162;-70
2021/12/16 13:37:23;;;;;;;11.10;4.23;;;;;;;22.94;36.98;103832.22;5051033;28;20500;-70
2021/12/16 13:39:52;;;;;;;8.23;3.70;;;;;;;23.71;35.86;103830.94;5032335;28;20025;-70
2021/12/16 13:42:18;;;;;;;7.43;3.93;;;;;;;23.38;35.78;103831.53;5032779;28;20111;-70
2021/12/16 13:44:46;;;;;;;9.20;3.63;;;;;;;21.99;37.85;103833.38;5032786;28;20385;-70
2021/12/16 13:47:27;;;;;;;10.87;3.60;;;;;;;22.27;37.90;103845.50;5032146;28;20045;-70
2021/12/16 14:05:27;;;;;;;14.53;4.47;;;;;;;22.74;37.04;103841.41;5013401;28;20053;-71
2021/12/16 14:07:56;;;;;;;9.77;3.93;;;;;;;22.15;38.50;103851.88;5032051;28;20062;-71
2021/12/16 14:10:58;;;;;;;10.30;4.57;;;;;;;22.16;38.59;103854.53;5032614;28;20036;-71
2021/12/16 14:17:11;;;;;;;;;;;;;;;24.48;34.54;103856.19;5051048;28;20036;-72
2021/12/16 14:42:34;;;;;;;13.37;4.97;;;;;;;23.44;35.56;103849.25;5045930;28;20125;-72
2021/12/16 14:45:24;;;;;;;11.93;4.65;;;;;;;23.05;36.30;103859.59;5050199;28;20531;-71
2021/12/16 14:48:10;;;;;;;13.43;5.03;;;;;;;22.80;37.03;103869.75;5049944;28;20029;-73
2021/12/16 14:50:47;;;;;;;9.17;4.83;;;;;;;23.29;35.72;103865.50;5050514;28;20024;-71
2021/12/16 14:53:35;;;;;;;15.80;5.60;;;;;;;23.38;35.49;103871.56;5031641;28;20025;-70
2021/12/16 14:56:06;;;;;;;17.10;6.83;;;;;;;23.85;34.79;103874.31;5030937;28;20455;-72
2021/12/16 14:58:32;;;;;;;14.33;5.27;;;;;;;23.50;34.92;103859.78;5032327;28;20028;-73